sensor_id;sensor_type;location;lat;lon;timestamp;temperature;humidity
68098;DHT22;54886;47.036;15.466;2024-01-06T00:00:28;4.68;82.43
68098;DHT22;54886;47.036;15.466;2024-01-06T00:02:53;4.66;82.41
68098;DHT22;54886;47.036;15.466;2024-01-06T00:05:18;4.65;82.45
68098;DHT22;54886;47.036;15.466;2024-01-06T00:07:44;4.69;82.59
68098;DHT22;54886;47.036;15.466;2024-01-06T00:10:09;4.72;82.36
68098;DHT22;54886;47.036;15.466;2024-01-06T00:12:35;4.71;82.38
68098;DHT22;54886;47.036;15.466;2024-01-06T00:15:00;4.69;82.31
68098;DHT22;54886;47.036;15.466;2024-01-06T00:17:26;4.69;82.35
68098;DHT22;54886;47.036;15.466;2024-01-06T00:19:51;4.71;82.56
68098;DHT22;54886;47.036;15.466;2024-01-06T00:22:19;4.69;82.58
68098;DHT22;54886;47.036;15.466;2024-01-06T00:24:45;4.69;82.51
68098;DHT22;54886;47.036;15.466;2024-01-06T00:27:10;4.72;82.53
68098;DHT22;54886;47.036;15.466;2024-01-06T00:29:36;4.71;82.63
68098;DHT22;54886;47.036;15.466;2024-01-06T00:32:01;4.73;82.74
68098;DHT22;54886;47.036;15.466;2024-01-06T00:34:26;4.75;82.82
68098;DHT22;54886;47.036;15.466;2024-01-06T00:36:52;4.72;82.71
68098;DHT22;54886;47.036;15.466;2024-01-06T00:39:20;4.73;82.89
68098;DHT22;54886;47.036;15.466;2024-01-06T00:41:45;4.71;82.70
68098;DHT22;54886;47.036;15.466;2024-01-06T00:44:11;4.73;83.07
68098;DHT22;54886;47.036;15.466;2024-01-06T00:46:36;4.75;82.82
68098;DHT22;54886;47.036;15.466;2024-01-06T00:49:02;4.75;83.07
68098;DHT22;54886;47.036;15.466;2024-01-06T00:51:27;4.76;82.97
68098;DHT22;54886;47.036;15.466;2024-01-06T00:53:53;4.75;82.83
68098;DHT22;54886;47.036;15.466;2024-01-06T00:56:18;4.76;82.96
68098;DHT22;54886;47.036;15.466;2024-01-06T00:58:44;4.79;83.10
68098;DHT22;54886;47.036;15.466;2024-01-06T01:01:09;4.77;83.01
68098;DHT22;54886;47.036;15.466;2024-01-06T01:03:34;4.77;82.95
68098;DHT22;54886;47.036;15.466;2024-01-06T01:06:00;4.77;82.97
68098;DHT22;54886;47.036;15.466;2024-01-06T01:08:25;4.77;82.96
68098;DHT22;54886;47.036;15.466;2024-01-06T01:10:51;4.80;82.99
68098;DHT22;54886;47.036;15.466;2024-01-06T01:13:16;4.80;83.04
68098;DHT22;54886;47.036;15.466;2024-01-06T01:15:41;4.79;83.23
68098;DHT22;54886;47.036;15.466;2024-01-06T01:18:07;4.79;82.83
68098;DHT22;54886;47.036;15.466;2024-01-06T01:20:32;4.80;82.92
68098;DHT22;54886;47.036;15.466;2024-01-06T01:22:58;4.82;82.95
68098;DHT22;54886;47.036;15.466;2024-01-06T01:25:23;4.80;82.93
68098;DHT22;54886;47.036;15.466;2024-01-06T01:27:48;4.82;83.13
68098;DHT22;54886;47.036;15.466;2024-01-06T01:30:14;4.82;82.95
68098;DHT22;54886;47.036;15.466;2024-01-06T01:32:39;4.83;83.18
68098;DHT22;54886;47.036;15.466;2024-01-06T01:35:05;4.83;83.39
68098;DHT22;54886;47.036;15.466;2024-01-06T01:37:30;4.86;83.27
68098;DHT22;54886;47.036;15.466;2024-01-06T01:39:56;4.86;83.18
68098;DHT22;54886;47.036;15.466;2024-01-06T01:42:22;4.87;83.29
68098;DHT22;54886;47.036;15.466;2024-01-06T01:44:47;4.87;83.12
68098;DHT22;54886;47.036;15.466;2024-01-06T01:47:13;4.86;83.13
68098;DHT22;54886;47.036;15.466;2024-01-06T01:49:43;4.86;83.16
68098;DHT22;54886;47.036;15.466;2024-01-06T01:52:09;4.87;83.08
68098;DHT22;54886;47.036;15.466;2024-01-06T01:54:34;4.93;83.05
68098;DHT22;54886;47.036;15.466;2024-01-06T01:57:00;4.90;83.21
68098;DHT22;54886;47.036;15.466;2024-01-06T01:59:26;4.92;82.97
68098;DHT22;54886;47.036;15.466;2024-01-06T02:01:51;4.92;82.82
68098;DHT22;54886;47.036;15.466;2024-01-06T02:04:16;4.96;82.44
68098;DHT22;54886;47.036;15.466;2024-01-06T02:06:42;5.01;82.22
68098;DHT22;54886;47.036;15.466;2024-01-06T02:09:07;5.00;82.22
68098;DHT22;54886;47.036;15.466;2024-01-06T02:11:33;5.06;82.01
68098;DHT22;54886;47.036;15.466;2024-01-06T02:13:58;5.07;82.14
68098;DHT22;54886;47.036;15.466;2024-01-06T02:16:23;5.06;81.92
68098;DHT22;54886;47.036;15.466;2024-01-06T02:18:49;5.06;81.79
68098;DHT22;54886;47.036;15.466;2024-01-06T02:21:14;5.09;81.93
68098;DHT22;54886;47.036;15.466;2024-01-06T02:23:40;5.11;82.04
68098;DHT22;54886;47.036;15.466;2024-01-06T02:26:05;5.10;82.14
68098;DHT22;54886;47.036;15.466;2024-01-06T02:28:31;5.11;82.39
68098;DHT22;54886;47.036;15.466;2024-01-06T02:30:56;5.10;82.31
68098;DHT22;54886;47.036;15.466;2024-01-06T02:33:22;5.10;82.29
68098;DHT22;54886;47.036;15.466;2024-01-06T02:35:49;5.11;82.28
68098;DHT22;54886;47.036;15.466;2024-01-06T02:38:15;5.11;82.27
68098;DHT22;54886;47.036;15.466;2024-01-06T02:40:40;5.13;82.29
68098;DHT22;54886;47.036;15.466;2024-01-06T02:43:06;5.11;82.45
68098;DHT22;54886;47.036;15.466;2024-01-06T02:45:31;5.10;82.62
68098;DHT22;54886;47.036;15.466;2024-01-06T02:47:56;5.10;82.51
68098;DHT22;54886;47.036;15.466;2024-01-06T02:50:22;5.10;82.48
68098;DHT22;54886;47.036;15.466;2024-01-06T02:52:47;5.13;82.59
68098;DHT22;54886;47.036;15.466;2024-01-06T02:55:13;5.09;82.54
68098;DHT22;54886;47.036;15.466;2024-01-06T02:57:38;5.10;82.74
68098;DHT22;54886;47.036;15.466;2024-01-06T03:00:04;5.09;82.67
68098;DHT22;54886;47.036;15.466;2024-01-06T03:02:30;5.09;82.72
68098;DHT22;54886;47.036;15.466;2024-01-06T03:04:55;5.10;82.72
68098;DHT22;54886;47.036;15.466;2024-01-06T03:07:21;5.09;82.81
68098;DHT22;54886;47.036;15.466;2024-01-06T03:09:47;5.10;82.74
68098;DHT22;54886;47.036;15.466;2024-01-06T03:12:12;5.10;82.84
68098;DHT22;54886;47.036;15.466;2024-01-06T03:14:38;5.10;82.76
68098;DHT22;54886;47.036;15.466;2024-01-06T03:17:03;5.13;82.75
68098;DHT22;54886;47.036;15.466;2024-01-06T03:19:32;5.11;82.82
68098;DHT22;54886;47.036;15.466;2024-01-06T03:21:58;5.11;82.84
68098;DHT22;54886;47.036;15.466;2024-01-06T03:24:26;5.14;82.75
68098;DHT22;54886;47.036;15.466;2024-01-06T03:26:51;5.10;82.85
68098;DHT22;54886;47.036;15.466;2024-01-06T03:29:17;5.11;83.03
68098;DHT22;54886;47.036;15.466;2024-01-06T03:31:43;5.10;83.14
68098;DHT22;54886;47.036;15.466;2024-01-06T03:34:09;5.14;82.90
68098;DHT22;54886;47.036;15.466;2024-01-06T03:36:36;5.14;83.01
68098;DHT22;54886;47.036;15.466;2024-01-06T03:39:02;5.14;83.02
68098;DHT22;54886;47.036;15.466;2024-01-06T03:41:27;5.13;82.94
68098;DHT22;54886;47.036;15.466;2024-01-06T03:43:53;5.13;83.20
68098;DHT22;54886;47.036;15.466;2024-01-06T03:46:18;5.14;83.20
68098;DHT22;54886;47.036;15.466;2024-01-06T03:48:43;5.13;82.88
68098;DHT22;54886;47.036;15.466;2024-01-06T03:51:09;5.17;82.90
68098;DHT22;54886;47.036;15.466;2024-01-06T03:53:34;5.13;82.96
68098;DHT22;54886;47.036;15.466;2024-01-06T03:56:00;5.14;82.86
68098;DHT22;54886;47.036;15.466;2024-01-06T03:58:25;5.14;82.93
68098;DHT22;54886;47.036;15.466;2024-01-06T04:00:51;5.14;82.84
68098;DHT22;54886;47.036;15.466;2024-01-06T04:03:16;5.13;82.87
68098;DHT22;54886;47.036;15.466;2024-01-06T04:05:41;5.11;82.74
68098;DHT22;54886;47.036;15.466;2024-01-06T04:08:07;5.13;82.80
68098;DHT22;54886;47.036;15.466;2024-01-06T04:10:33;5.13;82.81
68098;DHT22;54886;47.036;15.466;2024-01-06T04:12:58;5.11;82.85
68098;DHT22;54886;47.036;15.466;2024-01-06T04:15:23;5.11;82.85
68098;DHT22;54886;47.036;15.466;2024-01-06T04:17:49;5.11;82.83
68098;DHT22;54886;47.036;15.466;2024-01-06T04:20:14;5.11;83.03
68098;DHT22;54886;47.036;15.466;2024-01-06T04:22:40;5.13;83.39
68098;DHT22;54886;47.036;15.466;2024-01-06T04:25:05;5.11;83.45
68098;DHT22;54886;47.036;15.466;2024-01-06T04:27:31;5.10;83.53
68098;DHT22;54886;47.036;15.466;2024-01-06T04:29:59;5.11;83.58
68098;DHT22;54886;47.036;15.466;2024-01-06T04:32:24;5.10;83.52
68098;DHT22;54886;47.036;15.466;2024-01-06T04:34:49;5.13;83.55
68098;DHT22;54886;47.036;15.466;2024-01-06T04:37:15;5.10;83.96
68098;DHT22;54886;47.036;15.466;2024-01-06T04:39:40;5.07;83.82
68098;DHT22;54886;47.036;15.466;2024-01-06T04:42:06;5.07;84.03
68098;DHT22;54886;47.036;15.466;2024-01-06T04:44:31;5.07;84.35
68098;DHT22;54886;47.036;15.466;2024-01-06T04:46:57;5.09;84.31
68098;DHT22;54886;47.036;15.466;2024-01-06T04:49:22;5.10;84.45
68098;DHT22;54886;47.036;15.466;2024-01-06T04:51:48;5.11;84.37
68098;DHT22;54886;47.036;15.466;2024-01-06T04:54:13;5.09;84.26
68098;DHT22;54886;47.036;15.466;2024-01-06T04:56:39;5.11;84.27
68098;DHT22;54886;47.036;15.466;2024-01-06T04:59:04;5.11;84.47
68098;DHT22;54886;47.036;15.466;2024-01-06T05:01:30;5.11;84.19
68098;DHT22;54886;47.036;15.466;2024-01-06T05:03:55;5.11;84.20
68098;DHT22;54886;47.036;15.466;2024-01-06T05:06:22;5.09;84.33
68098;DHT22;54886;47.036;15.466;2024-01-06T05:08:48;5.09;84.26
68098;DHT22;54886;47.036;15.466;2024-01-06T05:11:13;5.07;84.32
68098;DHT22;54886;47.036;15.466;2024-01-06T05:13:39;5.10;84.50
68098;DHT22;54886;47.036;15.466;2024-01-06T05:16:04;5.13;84.39
68098;DHT22;54886;47.036;15.466;2024-01-06T05:18:30;5.09;84.79
68098;DHT22;54886;47.036;15.466;2024-01-06T05:20:55;5.11;84.79
68098;DHT22;54886;47.036;15.466;2024-01-06T05:23:21;5.10;84.81
68098;DHT22;54886;47.036;15.466;2024-01-06T05:25:46;5.16;84.99
68098;DHT22;54886;47.036;15.466;2024-01-06T05:28:12;5.11;85.38
68098;DHT22;54886;47.036;15.466;2024-01-06T05:30:37;5.10;84.96
68098;DHT22;54886;47.036;15.466;2024-01-06T05:33:03;5.11;85.07
68098;DHT22;54886;47.036;15.466;2024-01-06T05:35:28;5.11;85.02
68098;DHT22;54886;47.036;15.466;2024-01-06T05:37:54;5.14;85.02
68098;DHT22;54886;47.036;15.466;2024-01-06T05:40:19;5.16;85.09
68098;DHT22;54886;47.036;15.466;2024-01-06T05:42:45;5.16;85.32
68098;DHT22;54886;47.036;15.466;2024-01-06T05:45:11;5.14;85.16
68098;DHT22;54886;47.036;15.466;2024-01-06T05:47:39;5.14;85.14
68098;DHT22;54886;47.036;15.466;2024-01-06T05:50:05;5.16;85.36
68098;DHT22;54886;47.036;15.466;2024-01-06T05:52:30;5.17;85.44
68098;DHT22;54886;47.036;15.466;2024-01-06T05:54:56;5.16;85.34
68098;DHT22;54886;47.036;15.466;2024-01-06T05:57:23;5.16;85.41
68098;DHT22;54886;47.036;15.466;2024-01-06T05:59:49;5.19;85.38
68098;DHT22;54886;47.036;15.466;2024-01-06T06:02:14;5.19;85.45
68098;DHT22;54886;47.036;15.466;2024-01-06T06:04:39;5.19;85.56
68098;DHT22;54886;47.036;15.466;2024-01-06T06:07:05;5.17;85.78
68098;DHT22;54886;47.036;15.466;2024-01-06T06:09:30;5.17;85.81
68098;DHT22;54886;47.036;15.466;2024-01-06T06:11:55;5.17;86.27
68098;DHT22;54886;47.036;15.466;2024-01-06T06:14:21;5.19;85.96
68098;DHT22;54886;47.036;15.466;2024-01-06T06:16:47;5.19;85.60
68098;DHT22;54886;47.036;15.466;2024-01-06T06:19:13;5.23;85.37
68098;DHT22;54886;47.036;15.466;2024-01-06T06:21:38;5.21;85.76
68098;DHT22;54886;47.036;15.466;2024-01-06T06:24:04;5.17;86.11
68098;DHT22;54886;47.036;15.466;2024-01-06T06:26:29;5.19;86.18
68098;DHT22;54886;47.036;15.466;2024-01-06T06:28:55;5.20;86.27
68098;DHT22;54886;47.036;15.466;2024-01-06T06:31:20;5.19;86.11
68098;DHT22;54886;47.036;15.466;2024-01-06T06:33:46;5.20;86.44
68098;DHT22;54886;47.036;15.466;2024-01-06T06:36:11;5.21;86.23
68098;DHT22;54886;47.036;15.466;2024-01-06T06:38:36;5.21;86.12
68098;DHT22;54886;47.036;15.466;2024-01-06T06:41:02;5.21;86.19
68098;DHT22;54886;47.036;15.466;2024-01-06T06:43:28;5.20;86.18
68098;DHT22;54886;47.036;15.466;2024-01-06T06:45:53;5.19;86.36
68098;DHT22;54886;47.036;15.466;2024-01-06T06:48:20;5.23;85.83
68098;DHT22;54886;47.036;15.466;2024-01-06T06:50:46;5.23;85.90
68098;DHT22;54886;47.036;15.466;2024-01-06T06:53:11;5.24;86.05
68098;DHT22;54886;47.036;15.466;2024-01-06T06:55:38;5.20;86.72
68098;DHT22;54886;47.036;15.466;2024-01-06T06:58:04;5.21;86.51
68098;DHT22;54886;47.036;15.466;2024-01-06T07:00:30;5.23;86.36
68098;DHT22;54886;47.036;15.466;2024-01-06T07:02:55;5.24;86.34
68098;DHT22;54886;47.036;15.466;2024-01-06T07:05:21;5.24;86.22
68098;DHT22;54886;47.036;15.466;2024-01-06T07:07:46;5.24;86.06
68098;DHT22;54886;47.036;15.466;2024-01-06T07:10:12;5.23;86.30
68098;DHT22;54886;47.036;15.466;2024-01-06T07:12:38;5.24;86.10
68098;DHT22;54886;47.036;15.466;2024-01-06T07:15:03;5.28;86.03
68098;DHT22;54886;47.036;15.466;2024-01-06T07:17:29;5.26;86.08
68098;DHT22;54886;47.036;15.466;2024-01-06T07:19:54;5.26;86.14
68098;DHT22;54886;47.036;15.466;2024-01-06T07:22:20;5.28;86.30
68098;DHT22;54886;47.036;15.466;2024-01-06T07:24:45;5.26;86.52
68098;DHT22;54886;47.036;15.466;2024-01-06T07:27:11;5.30;86.56
68098;DHT22;54886;47.036;15.466;2024-01-06T07:29:37;5.30;86.68
68098;DHT22;54886;47.036;15.466;2024-01-06T07:32:04;5.30;86.75
68098;DHT22;54886;47.036;15.466;2024-01-06T07:34:29;5.34;86.90
68098;DHT22;54886;47.036;15.466;2024-01-06T07:36:54;5.31;86.85
68098;DHT22;54886;47.036;15.466;2024-01-06T07:39:20;5.32;86.48
68098;DHT22;54886;47.036;15.466;2024-01-06T07:41:45;5.32;86.39
68098;DHT22;54886;47.036;15.466;2024-01-06T07:44:14;5.35;87.00
68098;DHT22;54886;47.036;15.466;2024-01-06T07:46:41;5.34;86.95
68098;DHT22;54886;47.036;15.466;2024-01-06T07:49:06;5.34;87.05
68098;DHT22;54886;47.036;15.466;2024-01-06T07:51:31;5.35;86.54
68098;DHT22;54886;47.036;15.466;2024-01-06T07:53:57;5.37;86.67
68098;DHT22;54886;47.036;15.466;2024-01-06T07:56:24;5.37;86.85
68098;DHT22;54886;47.036;15.466;2024-01-06T07:58:49;5.39;86.53
68098;DHT22;54886;47.036;15.466;2024-01-06T08:01:15;5.39;86.54
68098;DHT22;54886;47.036;15.466;2024-01-06T08:03:41;5.37;86.60
68098;DHT22;54886;47.036;15.466;2024-01-06T08:06:06;5.39;86.81
68098;DHT22;54886;47.036;15.466;2024-01-06T08:08:31;5.41;87.14
68098;DHT22;54886;47.036;15.466;2024-01-06T08:10:57;5.42;87.18
68098;DHT22;54886;47.036;15.466;2024-01-06T08:13:22;5.44;87.33
68098;DHT22;54886;47.036;15.466;2024-01-06T08:15:48;5.47;87.22
68098;DHT22;54886;47.036;15.466;2024-01-06T08:18:13;5.47;87.08
68098;DHT22;54886;47.036;15.466;2024-01-06T08:20:38;5.51;87.16
68098;DHT22;54886;47.036;15.466;2024-01-06T08:23:04;5.49;87.19
68098;DHT22;54886;47.036;15.466;2024-01-06T08:25:29;5.48;87.31
68098;DHT22;54886;47.036;15.466;2024-01-06T08:27:55;5.52;87.53
68098;DHT22;54886;47.036;15.466;2024-01-06T08:30:20;5.51;87.54
68098;DHT22;54886;47.036;15.466;2024-01-06T08:32:45;5.54;87.36
68098;DHT22;54886;47.036;15.466;2024-01-06T08:35:11;5.55;87.43
68098;DHT22;54886;47.036;15.466;2024-01-06T08:37:36;5.58;87.66
68098;DHT22;54886;47.036;15.466;2024-01-06T08:40:02;5.60;87.57
68098;DHT22;54886;47.036;15.466;2024-01-06T08:42:29;5.59;87.46
68098;DHT22;54886;47.036;15.466;2024-01-06T08:44:55;5.62;87.75
68098;DHT22;54886;47.036;15.466;2024-01-06T08:47:20;5.63;88.19
68098;DHT22;54886;47.036;15.466;2024-01-06T08:49:45;5.66;87.84
68098;DHT22;54886;47.036;15.466;2024-01-06T08:52:11;5.68;87.85
68098;DHT22;54886;47.036;15.466;2024-01-06T08:54:36;5.66;87.72
68098;DHT22;54886;47.036;15.466;2024-01-06T08:57:02;5.70;88.00
68098;DHT22;54886;47.036;15.466;2024-01-06T08:59:27;5.72;88.18
68098;DHT22;54886;47.036;15.466;2024-01-06T09:01:52;5.75;88.06
68098;DHT22;54886;47.036;15.466;2024-01-06T09:04:18;5.75;88.49
68098;DHT22;54886;47.036;15.466;2024-01-06T09:06:43;5.77;88.33
68098;DHT22;54886;47.036;15.466;2024-01-06T09:09:10;5.77;88.10
68098;DHT22;54886;47.036;15.466;2024-01-06T09:11:35;5.79;87.87
68098;DHT22;54886;47.036;15.466;2024-01-06T09:14:01;5.80;88.19
68098;DHT22;54886;47.036;15.466;2024-01-06T09:16:26;5.85;88.36
68098;DHT22;54886;47.036;15.466;2024-01-06T09:18:52;5.87;89.13
68098;DHT22;54886;47.036;15.466;2024-01-06T09:21:17;5.85;88.71
68098;DHT22;54886;47.036;15.466;2024-01-06T09:23:43;5.89;88.92
68098;DHT22;54886;47.036;15.466;2024-01-06T09:26:08;5.90;88.70
68098;DHT22;54886;47.036;15.466;2024-01-06T09:28:34;5.93;88.25
68098;DHT22;54886;47.036;15.466;2024-01-06T09:30:59;5.92;88.04
68098;DHT22;54886;47.036;15.466;2024-01-06T09:33:25;5.93;87.88
68098;DHT22;54886;47.036;15.466;2024-01-06T09:35:50;5.94;88.04
68098;DHT22;54886;47.036;15.466;2024-01-06T09:38:16;5.97;88.12
68098;DHT22;54886;47.036;15.466;2024-01-06T09:40:43;6.02;87.61
68098;DHT22;54886;47.036;15.466;2024-01-06T09:43:10;6.00;87.38
68098;DHT22;54886;47.036;15.466;2024-01-06T09:45:36;6.03;87.30
68098;DHT22;54886;47.036;15.466;2024-01-06T09:48:12;6.04;87.81
68098;DHT22;54886;47.036;15.466;2024-01-06T09:50:41;6.04;88.52
68098;DHT22;54886;47.036;15.466;2024-01-06T09:53:11;6.09;88.67
68098;DHT22;54886;47.036;15.466;2024-01-06T09:55:37;6.10;88.61
68098;DHT22;54886;47.036;15.466;2024-01-06T09:58:04;6.11;88.71
68098;DHT22;54886;47.036;15.466;2024-01-06T10:00:30;6.13;88.49
68098;DHT22;54886;47.036;15.466;2024-01-06T10:02:55;6.14;88.24
68098;DHT22;54886;47.036;15.466;2024-01-06T10:05:21;6.16;88.04
68098;DHT22;54886;47.036;15.466;2024-01-06T10:07:48;6.17;87.95
68098;DHT22;54886;47.036;15.466;2024-01-06T10:10:14;6.20;87.84
68098;DHT22;54886;47.036;15.466;2024-01-06T10:12:41;6.20;88.10
68098;DHT22;54886;47.036;15.466;2024-01-06T10:15:11;6.22;88.14
68098;DHT22;54886;47.036;15.466;2024-01-06T10:17:39;6.21;87.99
68098;DHT22;54886;47.036;15.466;2024-01-06T10:20:12;6.25;87.40
68098;DHT22;54886;47.036;15.466;2024-01-06T10:22:41;6.24;87.74
68098;DHT22;54886;47.036;15.466;2024-01-06T10:25:07;6.25;87.88
68098;DHT22;54886;47.036;15.466;2024-01-06T10:27:40;6.27;87.88
68098;DHT22;54886;47.036;15.466;2024-01-06T10:30:07;6.28;87.71
68098;DHT22;54886;47.036;15.466;2024-01-06T10:32:33;6.30;87.94
68098;DHT22;54886;47.036;15.466;2024-01-06T10:35:00;6.32;87.82
68098;DHT22;54886;47.036;15.466;2024-01-06T10:37:26;6.32;87.78
68098;DHT22;54886;47.036;15.466;2024-01-06T10:40:24;6.34;87.93
68098;DHT22;54886;47.036;15.466;2024-01-06T10:42:50;6.35;88.00
68098;DHT22;54886;47.036;15.466;2024-01-06T10:45:17;6.37;87.88
68098;DHT22;54886;47.036;15.466;2024-01-06T10:47:43;6.38;87.94
68098;DHT22;54886;47.036;15.466;2024-01-06T10:50:09;6.38;87.89
68098;DHT22;54886;47.036;15.466;2024-01-06T10:52:34;6.42;87.68
68098;DHT22;54886;47.036;15.466;2024-01-06T10:55:01;6.41;88.16
68098;DHT22;54886;47.036;15.466;2024-01-06T10:57:29;6.42;88.22
68098;DHT22;54886;47.036;15.466;2024-01-06T10:59:57;6.42;87.72
68098;DHT22;54886;47.036;15.466;2024-01-06T11:02:23;6.42;86.81
68098;DHT22;54886;47.036;15.466;2024-01-06T11:04:50;6.44;86.87
68098;DHT22;54886;47.036;15.466;2024-01-06T11:07:20;6.46;86.89
68098;DHT22;54886;47.036;15.466;2024-01-06T11:10:02;6.49;87.54
68098;DHT22;54886;47.036;15.466;2024-01-06T11:12:30;6.51;87.06
68098;DHT22;54886;47.036;15.466;2024-01-06T11:14:55;6.52;87.04
68098;DHT22;54886;47.036;15.466;2024-01-06T11:20:16;6.53;86.82
68098;DHT22;54886;47.036;15.466;2024-01-06T11:22:42;6.52;86.56
68098;DHT22;54886;47.036;15.466;2024-01-06T11:25:15;6.53;87.06
68098;DHT22;54886;47.036;15.466;2024-01-06T11:27:43;6.55;86.79
68098;DHT22;54886;47.036;15.466;2024-01-06T11:30:20;6.55;87.06
68098;DHT22;54886;47.036;15.466;2024-01-06T11:32:45;6.56;87.45
68098;DHT22;54886;47.036;15.466;2024-01-06T11:35:15;6.55;87.75
68098;DHT22;54886;47.036;15.466;2024-01-06T11:40:10;6.58;88.18
68098;DHT22;54886;47.036;15.466;2024-01-06T11:42:42;6.56;88.29
68098;DHT22;54886;47.036;15.466;2024-01-06T11:45:08;6.59;87.80
68098;DHT22;54886;47.036;15.466;2024-01-06T11:47:35;6.62;88.14
68098;DHT22;54886;47.036;15.466;2024-01-06T11:50:01;6.62;87.92
68098;DHT22;54886;47.036;15.466;2024-01-06T11:52:30;6.65;88.02
68098;DHT22;54886;47.036;15.466;2024-01-06T11:54:56;6.62;88.20
68098;DHT22;54886;47.036;15.466;2024-01-06T11:57:21;6.64;87.94
68098;DHT22;54886;47.036;15.466;2024-01-06T11:59:48;6.62;88.54
68098;DHT22;54886;47.036;15.466;2024-01-06T12:02:13;6.64;88.04
68098;DHT22;54886;47.036;15.466;2024-01-06T12:04:39;6.68;87.96
68098;DHT22;54886;47.036;15.466;2024-01-06T12:07:08;6.65;88.60
68098;DHT22;54886;47.036;15.466;2024-01-06T12:09:34;6.65;88.55
68098;DHT22;54886;47.036;15.466;2024-01-06T12:12:04;6.65;88.76
68098;DHT22;54886;47.036;15.466;2024-01-06T12:14:30;6.64;88.73
68098;DHT22;54886;47.036;15.466;2024-01-06T12:16:58;6.66;88.44
68098;DHT22;54886;47.036;15.466;2024-01-06T12:19:31;6.65;88.35
68098;DHT22;54886;47.036;15.466;2024-01-06T12:21:56;6.66;88.44
68098;DHT22;54886;47.036;15.466;2024-01-06T12:24:22;6.68;88.69
68098;DHT22;54886;47.036;15.466;2024-01-06T12:26:48;6.68;88.81
68098;DHT22;54886;47.036;15.466;2024-01-06T12:29:14;6.68;88.92
68098;DHT22;54886;47.036;15.466;2024-01-06T12:31:40;6.66;88.68
68098;DHT22;54886;47.036;15.466;2024-01-06T12:34:06;6.71;88.70
68098;DHT22;54886;47.036;15.466;2024-01-06T12:36:34;6.69;88.81
68098;DHT22;54886;47.036;15.466;2024-01-06T12:39:00;6.71;89.09
68098;DHT22;54886;47.036;15.466;2024-01-06T12:41:27;6.72;88.72
68098;DHT22;54886;47.036;15.466;2024-01-06T12:43:53;6.75;89.13
68098;DHT22;54886;47.036;15.466;2024-01-06T12:46:18;6.75;89.18
68098;DHT22;54886;47.036;15.466;2024-01-06T12:48:44;6.75;89.06
68098;DHT22;54886;47.036;15.466;2024-01-06T12:51:09;6.77;88.86
68098;DHT22;54886;47.036;15.466;2024-01-06T12:53:34;6.77;88.93
68098;DHT22;54886;47.036;15.466;2024-01-06T12:56:00;6.77;88.71
68098;DHT22;54886;47.036;15.466;2024-01-06T12:58:25;6.80;88.59
68098;DHT22;54886;47.036;15.466;2024-01-06T13:00:50;6.80;89.20
68098;DHT22;54886;47.036;15.466;2024-01-06T13:03:16;6.82;89.18
68098;DHT22;54886;47.036;15.466;2024-01-06T13:05:41;6.83;88.95
68098;DHT22;54886;47.036;15.466;2024-01-06T13:08:07;6.83;88.97
68098;DHT22;54886;47.036;15.466;2024-01-06T13:10:32;6.85;89.19
68098;DHT22;54886;47.036;15.466;2024-01-06T13:12:59;6.86;89.23
68098;DHT22;54886;47.036;15.466;2024-01-06T13:15:25;6.86;89.37
68098;DHT22;54886;47.036;15.466;2024-01-06T13:17:50;6.87;89.11
68098;DHT22;54886;47.036;15.466;2024-01-06T13:20:16;6.87;88.83
68098;DHT22;54886;47.036;15.466;2024-01-06T13:22:42;6.89;88.77
68098;DHT22;54886;47.036;15.466;2024-01-06T13:25:07;6.89;89.06
68098;DHT22;54886;47.036;15.466;2024-01-06T13:27:34;6.87;88.79
68098;DHT22;54886;47.036;15.466;2024-01-06T13:29:59;6.87;88.86
68098;DHT22;54886;47.036;15.466;2024-01-06T13:32:25;6.87;89.08
68098;DHT22;54886;47.036;15.466;2024-01-06T13:34:52;6.87;89.04
68098;DHT22;54886;47.036;15.466;2024-01-06T13:37:20;6.90;89.12
68098;DHT22;54886;47.036;15.466;2024-01-06T13:39:47;6.87;88.77
68098;DHT22;54886;47.036;15.466;2024-01-06T13:42:13;6.89;89.04
68098;DHT22;54886;47.036;15.466;2024-01-06T13:44:38;6.89;88.70
68098;DHT22;54886;47.036;15.466;2024-01-06T13:47:04;6.89;88.84
68098;DHT22;54886;47.036;15.466;2024-01-06T13:49:30;6.92;88.67
68098;DHT22;54886;47.036;15.466;2024-01-06T13:51:56;6.94;88.57
68098;DHT22;54886;47.036;15.466;2024-01-06T13:54:21;6.90;88.68
68098;DHT22;54886;47.036;15.466;2024-01-06T13:56:47;6.89;88.68
68098;DHT22;54886;47.036;15.466;2024-01-06T13:59:12;6.92;88.86
68098;DHT22;54886;47.036;15.466;2024-01-06T14:01:38;6.87;88.54
68098;DHT22;54886;47.036;15.466;2024-01-06T14:04:04;6.90;88.42
68098;DHT22;54886;47.036;15.466;2024-01-06T14:06:32;6.90;88.33
68098;DHT22;54886;47.036;15.466;2024-01-06T14:08:59;6.87;88.21
68098;DHT22;54886;47.036;15.466;2024-01-06T14:11:28;6.89;88.01
68098;DHT22;54886;47.036;15.466;2024-01-06T14:13:57;6.87;88.07
68098;DHT22;54886;47.036;15.466;2024-01-06T14:16:23;6.86;87.98
68098;DHT22;54886;47.036;15.466;2024-01-06T14:18:48;6.87;87.60
68098;DHT22;54886;47.036;15.466;2024-01-06T14:21:14;6.86;87.61
68098;DHT22;54886;47.036;15.466;2024-01-06T14:23:41;6.86;87.72
68098;DHT22;54886;47.036;15.466;2024-01-06T14:26:07;6.85;87.30
68098;DHT22;54886;47.036;15.466;2024-01-06T14:28:32;6.85;87.12
68098;DHT22;54886;47.036;15.466;2024-01-06T14:30:57;6.85;87.29
68098;DHT22;54886;47.036;15.466;2024-01-06T14:33:23;6.85;87.01
68098;DHT22;54886;47.036;15.466;2024-01-06T14:35:52;6.86;87.15
68098;DHT22;54886;47.036;15.466;2024-01-06T14:38:18;6.82;87.08
68098;DHT22;54886;47.036;15.466;2024-01-06T14:40:44;6.83;87.04
68098;DHT22;54886;47.036;15.466;2024-01-06T14:43:09;6.83;86.76
68098;DHT22;54886;47.036;15.466;2024-01-06T14:45:36;6.82;86.74
68098;DHT22;54886;47.036;15.466;2024-01-06T14:48:02;6.79;86.19
68098;DHT22;54886;47.036;15.466;2024-01-06T14:50:27;6.77;86.36
68098;DHT22;54886;47.036;15.466;2024-01-06T14:52:53;6.80;85.93
68098;DHT22;54886;47.036;15.466;2024-01-06T14:55:18;6.75;86.22
68098;DHT22;54886;47.036;15.466;2024-01-06T14:57:44;6.69;85.85
68098;DHT22;54886;47.036;15.466;2024-01-06T15:00:10;6.71;85.99
68098;DHT22;54886;47.036;15.466;2024-01-06T15:02:38;6.69;86.10
68098;DHT22;54886;47.036;15.466;2024-01-06T15:05:05;6.68;85.32
68098;DHT22;54886;47.036;15.466;2024-01-06T15:07:31;6.68;85.41
68098;DHT22;54886;47.036;15.466;2024-01-06T15:10:00;6.65;85.04
68098;DHT22;54886;47.036;15.466;2024-01-06T15:12:26;6.65;85.27
68098;DHT22;54886;47.036;15.466;2024-01-06T15:14:52;6.64;85.39
68098;DHT22;54886;47.036;15.466;2024-01-06T15:17:17;6.64;85.04
68098;DHT22;54886;47.036;15.466;2024-01-06T15:19:44;6.59;85.22
68098;DHT22;54886;47.036;15.466;2024-01-06T15:22:10;6.58;85.60
68098;DHT22;54886;47.036;15.466;2024-01-06T15:24:35;6.61;85.52
68098;DHT22;54886;47.036;15.466;2024-01-06T15:27:01;6.59;85.23